sensor_id;sensor_type;location;lat;lon;timestamp;P1;durP1;ratioP1;P2;durP2;ratioP2
8415;SDS011;4245;42.120;24.732;2023-01-28T00:02:00;3.53;;;2.77;;
8415;SDS011;4245;42.120;24.732;2023-01-28T00:04:27;3.17;;;2.37;;
8415;SDS011;4245;42.120;24.732;2023-01-28T00:06:54;3.50;;;2.47;;
8415;SDS011;4245;42.120;24.732;2023-01-28T00:09:21;5.53;;;3.00;;
8415;SDS011;4245;42.120;24.732;2023-01-28T00:11:48;4.03;;;2.43;;
8415;SDS011;4245;42.120;24.732;2023-01-28T00:14:17;3.70;;;2.40;;
8415;SDS011;4245;42.120;24.732;2023-01-28T00:16:44;3.53;;;2.70;;
8415;SDS011;4245;42.120;24.732;2023-01-28T00:19:10;2.70;;;2.13;;
8415;SDS011;4245;42.120;24.732;2023-01-28T00:21:37;3.83;;;2.70;;
8415;SDS011;4245;42.120;24.732;2023-01-28T00:24:04;4.33;;;2.70;;
8415;SDS011;4245;42.120;24.732;2023-01-28T00:26:33;3.13;;;2.57;;
8415;SDS011;4245;42.120;24.732;2023-01-28T00:29:01;3.93;;;2.80;;
8415;SDS011;4245;42.120;24.732;2023-01-28T00:31:30;4.17;;;3.33;;
8415;SDS011;4245;42.120;24.732;2023-01-28T00:33:58;3.87;;;2.90;;
8415;SDS011;4245;42.120;24.732;2023-01-28T00:36:25;3.00;;;2.60;;
8415;SDS011;4245;42.120;24.732;2023-01-28T00:38:53;4.23;;;2.97;;
8415;SDS011;4245;42.120;24.732;2023-01-28T00:41:21;4.33;;;3.33;;
8415;SDS011;4245;42.120;24.732;2023-01-28T00:43:49;3.03;;;2.17;;
8415;SDS011;4245;42.120;24.732;2023-01-28T00:46:17;3.67;;;2.80;;
8415;SDS011;4245;42.120;24.732;2023-01-28T00:48:46;4.73;;;2.73;;
8415;SDS011;4245;42.120;24.732;2023-01-28T00:51:13;3.60;;;2.90;;
8415;SDS011;4245;42.120;24.732;2023-01-28T00:53:42;2.70;;;2.37;;
8415;SDS011;4245;42.120;24.732;2023-01-28T00:56:10;3.87;;;3.20;;
8415;SDS011;4245;42.120;24.732;2023-01-28T00:58:39;3.87;;;2.90;;
8415;SDS011;4245;42.120;24.732;2023-01-28T01:01:07;5.13;;;3.53;;
8415;SDS011;4245;42.120;24.732;2023-01-28T01:03:35;3.80;;;3.00;;
8415;SDS011;4245;42.120;24.732;2023-01-28T01:06:03;4.07;;;2.93;;
8415;SDS011;4245;42.120;24.732;2023-01-28T01:08:31;4.80;;;2.70;;
8415;SDS011;4245;42.120;24.732;2023-01-28T01:11:00;3.73;;;2.83;;
8415;SDS011;4245;42.120;24.732;2023-01-28T01:13:27;3.80;;;3.00;;
8415;SDS011;4245;42.120;24.732;2023-01-28T01:16:04;3.63;;;2.53;;
8415;SDS011;4245;42.120;24.732;2023-01-28T01:18:32;4.60;;;3.23;;
8415;SDS011;4245;42.120;24.732;2023-01-28T01:21:00;4.20;;;2.90;;
8415;SDS011;4245;42.120;24.732;2023-01-28T01:23:29;5.00;;;3.30;;
8415;SDS011;4245;42.120;24.732;2023-01-28T01:25:56;4.60;;;3.10;;
8415;SDS011;4245;42.120;24.732;2023-01-28T01:28:24;4.23;;;3.43;;
8415;SDS011;4245;42.120;24.732;2023-01-28T01:30:57;4.93;;;3.20;;
8415;SDS011;4245;42.120;24.732;2023-01-28T01:33:26;4.37;;;3.00;;
8415;SDS011;4245;42.120;24.732;2023-01-28T01:35:54;4.27;;;2.90;;
8415;SDS011;4245;42.120;24.732;2023-01-28T01:38:21;5.43;;;3.73;;
8415;SDS011;4245;42.120;24.732;2023-01-28T01:40:49;4.13;;;3.07;;
8415;SDS011;4245;42.120;24.732;2023-01-28T01:43:17;3.73;;;3.30;;
8415;SDS011;4245;42.120;24.732;2023-01-28T01:45:46;4.73;;;3.23;;
8415;SDS011;4245;42.120;24.732;2023-01-28T01:48:16;4.80;;;3.43;;
8415;SDS011;4245;42.120;24.732;2023-01-28T01:50:47;4.87;;;3.23;;
8415;SDS011;4245;42.120;24.732;2023-01-28T01:53:19;4.37;;;3.17;;
8415;SDS011;4245;42.120;24.732;2023-01-28T01:55:52;5.10;;;2.57;;
8415;SDS011;4245;42.120;24.732;2023-01-28T01:58:24;4.10;;;2.63;;
8415;SDS011;4245;42.120;24.732;2023-01-28T02:00:55;3.60;;;2.87;;
8415;SDS011;4245;42.120;24.732;2023-01-28T02:03:25;3.40;;;2.43;;
8415;SDS011;4245;42.120;24.732;2023-01-28T02:05:56;4.80;;;3.37;;
8415;SDS011;4245;42.120;24.732;2023-01-28T02:08:23;3.07;;;2.70;;
8415;SDS011;4245;42.120;24.732;2023-01-28T02:10:54;3.90;;;3.03;;
8415;SDS011;4245;42.120;24.732;2023-01-28T02:13:27;4.67;;;3.50;;
8415;SDS011;4245;42.120;24.732;2023-01-28T02:15:57;4.97;;;3.57;;
8415;SDS011;4245;42.120;24.732;2023-01-28T02:18:27;3.87;;;3.03;;
8415;SDS011;4245;42.120;24.732;2023-01-28T02:21:04;3.47;;;2.87;;
8415;SDS011;4245;42.120;24.732;2023-01-28T02:23:49;3.93;;;2.73;;
8415;SDS011;4245;42.120;24.732;2023-01-28T02:26:33;4.50;;;3.30;;
8415;SDS011;4245;42.120;24.732;2023-01-28T02:29:18;3.83;;;2.70;;
8415;SDS011;4245;42.120;24.732;2023-01-28T02:31:51;3.83;;;2.70;;
8415;SDS011;4245;42.120;24.732;2023-01-28T02:34:23;3.87;;;2.70;;
8415;SDS011;4245;42.120;24.732;2023-01-28T02:37:02;4.93;;;2.77;;
8415;SDS011;4245;42.120;24.732;2023-01-28T02:39:35;3.20;;;2.60;;
8415;SDS011;4245;42.120;24.732;2023-01-28T02:42:06;3.23;;;2.20;;
8415;SDS011;4245;42.120;24.732;2023-01-28T02:44:40;4.20;;;2.70;;
8415;SDS011;4245;42.120;24.732;2023-01-28T02:47:08;3.73;;;2.53;;
8415;SDS011;4245;42.120;24.732;2023-01-28T02:49:54;3.03;;;2.37;;
8415;SDS011;4245;42.120;24.732;2023-01-28T02:52:31;3.00;;;2.30;;
8415;SDS011;4245;42.120;24.732;2023-01-28T02:55:37;3.60;;;2.77;;
8415;SDS011;4245;42.120;24.732;2023-01-28T02:58:13;3.07;;;2.40;;
8415;SDS011;4245;42.120;24.732;2023-01-28T03:00:49;3.80;;;2.40;;
8415;SDS011;4245;42.120;24.732;2023-01-28T03:03:24;3.17;;;2.70;;
8415;SDS011;4245;42.120;24.732;2023-01-28T03:05:54;2.83;;;2.10;;
8415;SDS011;4245;42.120;24.732;2023-01-28T03:08:32;3.77;;;2.50;;
8415;SDS011;4245;42.120;24.732;2023-01-28T03:11:19;3.00;;;2.20;;
8415;SDS011;4245;42.120;24.732;2023-01-28T03:14:04;3.27;;;2.43;;
8415;SDS011;4245;42.120;24.732;2023-01-28T03:16:51;3.83;;;2.50;;
8415;SDS011;4245;42.120;24.732;2023-01-28T03:19:39;3.23;;;2.40;;
8415;SDS011;4245;42.120;24.732;2023-01-28T03:22:24;3.73;;;2.50;;
8415;SDS011;4245;42.120;24.732;2023-01-28T03:25:10;4.10;;;2.70;;
8415;SDS011;4245;42.120;24.732;2023-01-28T03:27:58;2.53;;;1.80;;
8415;SDS011;4245;42.120;24.732;2023-01-28T03:30:47;3.30;;;2.33;;
8415;SDS011;4245;42.120;24.732;2023-01-28T03:33:37;3.47;;;2.10;;
8415;SDS011;4245;42.120;24.732;2023-01-28T03:36:22;3.10;;;2.40;;
8415;SDS011;4245;42.120;24.732;2023-01-28T03:39:07;3.40;;;2.30;;
8415;SDS011;4245;42.120;24.732;2023-01-28T03:41:34;3.27;;;2.50;;
8415;SDS011;4245;42.120;24.732;2023-01-28T03:44:01;3.20;;;2.20;;
8415;SDS011;4245;42.120;24.732;2023-01-28T03:46:46;2.93;;;2.40;;
8415;SDS011;4245;42.120;24.732;2023-01-28T03:49:14;3.43;;;2.33;;
8415;SDS011;4245;42.120;24.732;2023-01-28T03:51:41;2.87;;;2.33;;
8415;SDS011;4245;42.120;24.732;2023-01-28T03:54:10;3.70;;;2.60;;
8415;SDS011;4245;42.120;24.732;2023-01-28T03:56:37;4.30;;;2.97;;
8415;SDS011;4245;42.120;24.732;2023-01-28T03:59:04;4.43;;;2.50;;
8415;SDS011;4245;42.120;24.732;2023-01-28T04:01:31;9.27;;;2.23;;
8415;SDS011;4245;42.120;24.732;2023-01-28T04:03:58;3.73;;;2.50;;
8415;SDS011;4245;42.120;24.732;2023-01-28T04:06:27;3.67;;;2.33;;
8415;SDS011;4245;42.120;24.732;2023-01-28T04:08:54;3.17;;;2.63;;
8415;SDS011;4245;42.120;24.732;2023-01-28T04:11:23;3.57;;;2.50;;
8415;SDS011;4245;42.120;24.732;2023-01-28T04:13:50;3.73;;;2.33;;
8415;SDS011;4245;42.120;24.732;2023-01-28T04:16:17;3.77;;;2.70;;
8415;SDS011;4245;42.120;24.732;2023-01-28T04:18:45;2.80;;;2.20;;
8415;SDS011;4245;42.120;24.732;2023-01-28T04:21:12;3.40;;;2.40;;
8415;SDS011;4245;42.120;24.732;2023-01-28T04:23:41;3.50;;;2.80;;
8415;SDS011;4245;42.120;24.732;2023-01-28T04:26:07;3.43;;;2.70;;
8415;SDS011;4245;42.120;24.732;2023-01-28T04:28:34;4.10;;;2.63;;
8415;SDS011;4245;42.120;24.732;2023-01-28T04:31:01;3.00;;;2.30;;
8415;SDS011;4245;42.120;24.732;2023-01-28T04:33:28;3.10;;;2.30;;
8415;SDS011;4245;42.120;24.732;2023-01-28T04:35:55;3.17;;;2.33;;
8415;SDS011;4245;42.120;24.732;2023-01-28T04:38:22;3.50;;;2.53;;
8415;SDS011;4245;42.120;24.732;2023-01-28T04:40:51;4.07;;;2.70;;
8415;SDS011;4245;42.120;24.732;2023-01-28T04:43:18;2.93;;;2.37;;
8415;SDS011;4245;42.120;24.732;2023-01-28T04:45:46;3.20;;;2.30;;
8415;SDS011;4245;42.120;24.732;2023-01-28T04:48:13;2.90;;;2.20;;
8415;SDS011;4245;42.120;24.732;2023-01-28T04:50:41;3.87;;;2.70;;
8415;SDS011;4245;42.120;24.732;2023-01-28T04:53:09;2.90;;;2.10;;
8415;SDS011;4245;42.120;24.732;2023-01-28T04:55:36;2.90;;;2.27;;
8415;SDS011;4245;42.120;24.732;2023-01-28T04:58:05;4.17;;;2.60;;
8415;SDS011;4245;42.120;24.732;2023-01-28T05:00:32;3.10;;;2.20;;
8415;SDS011;4245;42.120;24.732;2023-01-28T05:02:59;3.67;;;2.40;;
8415;SDS011;4245;42.120;24.732;2023-01-28T05:05:25;4.07;;;2.90;;
8415;SDS011;4245;42.120;24.732;2023-01-28T05:07:53;3.27;;;2.63;;
8415;SDS011;4245;42.120;24.732;2023-01-28T05:10:21;3.67;;;2.47;;
8415;SDS011;4245;42.120;24.732;2023-01-28T05:12:48;4.67;;;3.00;;
8415;SDS011;4245;42.120;24.732;2023-01-28T05:15:17;3.60;;;2.70;;
8415;SDS011;4245;42.120;24.732;2023-01-28T05:17:45;4.70;;;3.17;;
8415;SDS011;4245;42.120;24.732;2023-01-28T05:20:12;3.73;;;3.10;;
8415;SDS011;4245;42.120;24.732;2023-01-28T05:22:40;3.30;;;2.37;;
8415;SDS011;4245;42.120;24.732;2023-01-28T05:25:08;4.20;;;2.70;;
8415;SDS011;4245;42.120;24.732;2023-01-28T05:27:35;4.03;;;3.07;;
8415;SDS011;4245;42.120;24.732;2023-01-28T05:30:02;4.30;;;2.80;;
8415;SDS011;4245;42.120;24.732;2023-01-28T05:32:32;5.60;;;3.50;;
8415;SDS011;4245;42.120;24.732;2023-01-28T05:34:59;5.57;;;3.60;;
8415;SDS011;4245;42.120;24.732;2023-01-28T05:37:26;5.03;;;3.20;;
8415;SDS011;4245;42.120;24.732;2023-01-28T05:39:53;4.93;;;3.10;;
8415;SDS011;4245;42.120;24.732;2023-01-28T05:42:19;3.83;;;2.63;;
8415;SDS011;4245;42.120;24.732;2023-01-28T05:44:46;4.30;;;3.37;;
8415;SDS011;4245;42.120;24.732;2023-01-28T05:47:13;4.47;;;2.80;;
8415;SDS011;4245;42.120;24.732;2023-01-28T05:49:41;5.80;;;3.27;;
8415;SDS011;4245;42.120;24.732;2023-01-28T05:52:08;3.87;;;2.50;;
8415;SDS011;4245;42.120;24.732;2023-01-28T05:54:35;5.53;;;3.23;;
8415;SDS011;4245;42.120;24.732;2023-01-28T05:57:02;4.97;;;2.90;;
8415;SDS011;4245;42.120;24.732;2023-01-28T05:59:29;5.03;;;3.27;;
8415;SDS011;4245;42.120;24.732;2023-01-28T06:01:56;6.57;;;3.10;;
8415;SDS011;4245;42.120;24.732;2023-01-28T06:04:23;5.60;;;3.30;;
8415;SDS011;4245;42.120;24.732;2023-01-28T06:06:52;4.37;;;2.60;;
8415;SDS011;4245;42.120;24.732;2023-01-28T06:09:18;6.20;;;3.03;;
8415;SDS011;4245;42.120;24.732;2023-01-28T06:11:45;4.30;;;3.07;;
8415;SDS011;4245;42.120;24.732;2023-01-28T06:14:14;5.00;;;3.07;;
8415;SDS011;4245;42.120;24.732;2023-01-28T06:16:41;4.67;;;3.20;;
8415;SDS011;4245;42.120;24.732;2023-01-28T06:19:08;5.17;;;3.07;;
8415;SDS011;4245;42.120;24.732;2023-01-28T06:21:35;4.70;;;3.50;;
8415;SDS011;4245;42.120;24.732;2023-01-28T06:24:03;3.97;;;2.83;;
8415;SDS011;4245;42.120;24.732;2023-01-28T06:26:30;3.90;;;3.10;;
8415;SDS011;4245;42.120;24.732;2023-01-28T06:28:57;5.67;;;3.37;;
8415;SDS011;4245;42.120;24.732;2023-01-28T06:31:24;7.10;;;3.00;;
8415;SDS011;4245;42.120;24.732;2023-01-28T06:33:50;6.90;;;4.00;;
8415;SDS011;4245;42.120;24.732;2023-01-28T06:36:17;4.87;;;3.00;;
8415;SDS011;4245;42.120;24.732;2023-01-28T06:38:44;5.73;;;3.83;;
8415;SDS011;4245;42.120;24.732;2023-01-28T06:41:12;8.27;;;3.80;;
8415;SDS011;4245;42.120;24.732;2023-01-28T06:43:39;4.80;;;3.40;;
8415;SDS011;4245;42.120;24.732;2023-01-28T06:46:06;4.30;;;3.03;;
8415;SDS011;4245;42.120;24.732;2023-01-28T06:48:33;7.00;;;3.93;;
8415;SDS011;4245;42.120;24.732;2023-01-28T06:51:00;5.40;;;3.60;;
8415;SDS011;4245;42.120;24.732;2023-01-28T06:53:27;7.30;;;4.63;;
8415;SDS011;4245;42.120;24.732;2023-01-28T06:55:54;4.87;;;3.33;;
8415;SDS011;4245;42.120;24.732;2023-01-28T06:58:22;6.00;;;4.03;;
8415;SDS011;4245;42.120;24.732;2023-01-28T07:00:49;5.50;;;4.03;;
8415;SDS011;4245;42.120;24.732;2023-01-28T07:03:16;8.60;;;4.17;;
8415;SDS011;4245;42.120;24.732;2023-01-28T07:05:42;9.63;;;4.53;;
8415;SDS011;4245;42.120;24.732;2023-01-28T07:08:10;6.27;;;4.07;;
8415;SDS011;4245;42.120;24.732;2023-01-28T07:10:37;7.13;;;4.30;;
8415;SDS011;4245;42.120;24.732;2023-01-28T07:13:04;7.63;;;4.60;;
8415;SDS011;4245;42.120;24.732;2023-01-28T07:15:32;7.73;;;4.50;;
8415;SDS011;4245;42.120;24.732;2023-01-28T07:17:59;7.30;;;3.90;;
8415;SDS011;4245;42.120;24.732;2023-01-28T07:20:26;6.00;;;3.70;;
8415;SDS011;4245;42.120;24.732;2023-01-28T07:22:53;7.73;;;5.00;;
8415;SDS011;4245;42.120;24.732;2023-01-28T07:25:20;5.93;;;3.93;;
8415;SDS011;4245;42.120;24.732;2023-01-28T07:27:47;5.07;;;4.07;;
8415;SDS011;4245;42.120;24.732;2023-01-28T07:30:15;6.63;;;4.67;;
8415;SDS011;4245;42.120;24.732;2023-01-28T07:32:45;6.23;;;4.47;;
8415;SDS011;4245;42.120;24.732;2023-01-28T07:35:12;8.33;;;4.93;;
8415;SDS011;4245;42.120;24.732;2023-01-28T07:37:40;6.40;;;4.30;;
8415;SDS011;4245;42.120;24.732;2023-01-28T07:40:07;7.10;;;3.93;;
8415;SDS011;4245;42.120;24.732;2023-01-28T07:42:35;6.67;;;4.30;;
8415;SDS011;4245;42.120;24.732;2023-01-28T07:47:37;5.97;;;4.27;;
8415;SDS011;4245;42.120;24.732;2023-01-28T07:50:06;6.77;;;3.90;;
8415;SDS011;4245;42.120;24.732;2023-01-28T07:52:33;7.07;;;3.87;;
8415;SDS011;4245;42.120;24.732;2023-01-28T07:55:08;6.03;;;4.10;;
8415;SDS011;4245;42.120;24.732;2023-01-28T07:57:35;5.43;;;3.83;;
8415;SDS011;4245;42.120;24.732;2023-01-28T08:00:02;4.90;;;3.80;;
8415;SDS011;4245;42.120;24.732;2023-01-28T08:02:29;5.53;;;3.93;;
8415;SDS011;4245;42.120;24.732;2023-01-28T08:04:56;6.10;;;3.60;;
8415;SDS011;4245;42.120;24.732;2023-01-28T08:07:27;6.63;;;3.90;;
8415;SDS011;4245;42.120;24.732;2023-01-28T08:09:54;5.63;;;4.00;;
8415;SDS011;4245;42.120;24.732;2023-01-28T08:12:21;5.80;;;4.17;;
8415;SDS011;4245;42.120;24.732;2023-01-28T08:14:48;7.20;;;4.53;;
8415;SDS011;4245;42.120;24.732;2023-01-28T08:17:15;7.17;;;5.20;;
8415;SDS011;4245;42.120;24.732;2023-01-28T08:19:42;4.73;;;3.90;;
8415;SDS011;4245;42.120;24.732;2023-01-28T08:22:09;4.97;;;3.70;;
8415;SDS011;4245;42.120;24.732;2023-01-28T08:24:37;6.13;;;4.20;;
8415;SDS011;4245;42.120;24.732;2023-01-28T08:27:04;6.30;;;4.27;;
8415;SDS011;4245;42.120;24.732;2023-01-28T08:29:31;5.43;;;4.07;;
8415;SDS011;4245;42.120;24.732;2023-01-28T08:31:58;9.37;;;4.17;;
8415;SDS011;4245;42.120;24.732;2023-01-28T08:34:25;5.33;;;3.97;;
8415;SDS011;4245;42.120;24.732;2023-01-28T08:36:52;4.33;;;3.23;;
8415;SDS011;4245;42.120;24.732;2023-01-28T08:39:19;5.27;;;4.07;;
8415;SDS011;4245;42.120;24.732;2023-01-28T08:41:47;5.97;;;3.60;;
8415;SDS011;4245;42.120;24.732;2023-01-28T08:44:14;4.70;;;3.03;;
8415;SDS011;4245;42.120;24.732;2023-01-28T08:46:41;4.40;;;3.93;;
8415;SDS011;4245;42.120;24.732;2023-01-28T08:49:08;4.80;;;3.40;;
8415;SDS011;4245;42.120;24.732;2023-01-28T08:51:34;6.20;;;3.80;;
8415;SDS011;4245;42.120;24.732;2023-01-28T08:54:01;5.10;;;4.10;;
8415;SDS011;4245;42.120;24.732;2023-01-28T08:56:28;6.53;;;3.77;;
8415;SDS011;4245;42.120;24.732;2023-01-28T08:58:57;6.20;;;4.40;;
8415;SDS011;4245;42.120;24.732;2023-01-28T09:01:23;5.10;;;3.60;;
8415;SDS011;4245;42.120;24.732;2023-01-28T09:03:53;5.87;;;3.80;;
8415;SDS011;4245;42.120;24.732;2023-01-28T09:06:20;4.90;;;3.77;;
8415;SDS011;4245;42.120;24.732;2023-01-28T09:08:47;7.80;;;3.40;;
8415;SDS011;4245;42.120;24.732;2023-01-28T09:11:13;5.37;;;3.60;;
8415;SDS011;4245;42.120;24.732;2023-01-28T09:13:40;8.30;;;3.57;;
8415;SDS011;4245;42.120;24.732;2023-01-28T09:16:09;3.33;;;2.73;;
8415;SDS011;4245;42.120;24.732;2023-01-28T09:18:35;4.27;;;3.30;;
8415;SDS011;4245;42.120;24.732;2023-01-28T09:21:03;5.07;;;3.63;;
8415;SDS011;4245;42.120;24.732;2023-01-28T09:23:32;4.60;;;3.40;;
8415;SDS011;4245;42.120;24.732;2023-01-28T09:25:59;4.53;;;3.80;;
8415;SDS011;4245;42.120;24.732;2023-01-28T09:28:26;5.83;;;3.83;;
8415;SDS011;4245;42.120;24.732;2023-01-28T09:30:59;6.60;;;3.70;;
8415;SDS011;4245;42.120;24.732;2023-01-28T09:33:28;5.07;;;3.77;;
8415;SDS011;4245;42.120;24.732;2023-01-28T09:35:54;6.13;;;3.43;;
8415;SDS011;4245;42.120;24.732;2023-01-28T09:38:21;6.03;;;4.20;;
8415;SDS011;4245;42.120;24.732;2023-01-28T09:40:48;5.97;;;3.70;;
8415;SDS011;4245;42.120;24.732;2023-01-28T09:43:19;7.63;;;4.03;;
8415;SDS011;4245;42.120;24.732;2023-01-28T09:46:07;5.07;;;3.37;;
8415;SDS011;4245;42.120;24.732;2023-01-28T09:48:39;4.57;;;3.50;;
8415;SDS011;4245;42.120;24.732;2023-01-28T09:51:12;4.17;;;3.40;;
8415;SDS011;4245;42.120;24.732;2023-01-28T09:53:47;6.27;;;3.63;;
8415;SDS011;4245;42.120;24.732;2023-01-28T09:56:21;4.17;;;3.20;;
8415;SDS011;4245;42.120;24.732;2023-01-28T09:58:51;4.73;;;2.97;;
8415;SDS011;4245;42.120;24.732;2023-01-28T10:01:26;4.37;;;3.17;;
8415;SDS011;4245;42.120;24.732;2023-01-28T10:04:03;4.20;;;3.13;;
8415;SDS011;4245;42.120;24.732;2023-01-28T10:06:41;8.50;;;3.97;;
8415;SDS011;4245;42.120;24.732;2023-01-28T10:09:18;3.57;;;3.00;;
8415;SDS011;4245;42.120;24.732;2023-01-28T10:12:03;3.97;;;3.30;;
8415;SDS011;4245;42.120;24.732;2023-01-28T10:14:49;3.60;;;3.10;;
8415;SDS011;4245;42.120;24.732;2023-01-28T10:17:39;4.33;;;3.43;;
8415;SDS011;4245;42.120;24.732;2023-01-28T10:20:15;4.10;;;3.47;;
8415;SDS011;4245;42.120;24.732;2023-01-28T10:22:47;5.13;;;3.00;;
8415;SDS011;4245;42.120;24.732;2023-01-28T10:25:19;3.50;;;3.00;;
8415;SDS011;4245;42.120;24.732;2023-01-28T10:27:47;3.87;;;3.03;;
8415;SDS011;4245;42.120;24.732;2023-01-28T10:30:16;3.83;;;3.17;;
8415;SDS011;4245;42.120;24.732;2023-01-28T10:32:46;7.70;;;3.90;;
8415;SDS011;4245;42.120;24.732;2023-01-28T10:35:18;5.73;;;4.13;;
8415;SDS011;4245;42.120;24.732;2023-01-28T10:37:45;6.37;;;3.43;;
8415;SDS011;4245;42.120;24.732;2023-01-28T10:40:14;10.07;;;4.17;;
8415;SDS011;4245;42.120;24.732;2023-01-28T10:42:42;6.90;;;4.10;;
8415;SDS011;4245;42.120;24.732;2023-01-28T10:45:13;4.90;;;3.93;;
8415;SDS011;4245;42.120;24.732;2023-01-28T10:47:45;5.33;;;4.07;;
8415;SDS011;4245;42.120;24.732;2023-01-28T10:50:16;4.40;;;3.60;;
8415;SDS011;4245;42.120;24.732;2023-01-28T10:52:54;8.10;;;4.30;;
8415;SDS011;4245;42.120;24.732;2023-01-28T10:55:21;4.20;;;3.50;;
8415;SDS011;4245;42.120;24.732;2023-01-28T10:57:49;4.87;;;3.77;;
8415;SDS011;4245;42.120;24.732;2023-01-28T11:00:21;5.97;;;4.50;;
8415;SDS011;4245;42.120;24.732;2023-01-28T11:02:49;5.23;;;4.10;;
8415;SDS011;4245;42.120;24.732;2023-01-28T11:05:17;6.30;;;3.97;;
8415;SDS011;4245;42.120;24.732;2023-01-28T11:07:46;6.93;;;4.10;;
8415;SDS011;4245;42.120;24.732;2023-01-28T11:10:28;5.93;;;4.47;;
8415;SDS011;4245;42.120;24.732;2023-01-28T11:12:58;6.53;;;4.27;;
8415;SDS011;4245;42.120;24.732;2023-01-28T11:15:26;6.00;;;4.50;;
8415;SDS011;4245;42.120;24.732;2023-01-28T11:17:54;6.10;;;4.53;;
8415;SDS011;4245;42.120;24.732;2023-01-28T11:20:25;5.37;;;4.00;;
8415;SDS011;4245;42.120;24.732;2023-01-28T11:22:53;6.20;;;4.17;;
8415;SDS011;4245;42.120;24.732;2023-01-28T11:25:23;7.27;;;4.40;;
8415;SDS011;4245;42.120;24.732;2023-01-28T11:27:55;4.77;;;4.07;;
8415;SDS011;4245;42.120;24.732;2023-01-28T11:30:23;5.53;;;4.67;;
8415;SDS011;4245;42.120;24.732;2023-01-28T11:32:55;7.00;;;4.67;;
8415;SDS011;4245;42.120;24.732;2023-01-28T11:35:26;8.57;;;4.80;;
8415;SDS011;4245;42.120;24.732;2023-01-28T11:37:55;7.43;;;4.60;;
8415;SDS011;4245;42.120;24.732;2023-01-28T11:40:23;5.83;;;4.73;;
8415;SDS011;4245;42.120;24.732;2023-01-28T11:42:50;5.00;;;4.30;;
8415;SDS011;4245;42.120;24.732;2023-01-28T11:45:23;6.53;;;4.60;;
8415;SDS011;4245;42.120;24.732;2023-01-28T11:48:11;5.17;;;4.20;;
8415;SDS011;4245;42.120;24.732;2023-01-28T11:50:50;5.53;;;4.37;;
8415;SDS011;4245;42.120;24.732;2023-01-28T11:53:32;5.37;;;4.00;;
8415;SDS011;4245;42.120;24.732;2023-01-28T11:59:16;7.27;;;4.80;;
8415;SDS011;4245;42.120;24.732;2023-01-28T12:01:54;6.13;;;4.70;;
8415;SDS011;4245;42.120;24.732;2023-01-28T12:04:38;6.10;;;4.50;;
8415;SDS011;4245;42.120;24.732;2023-01-28T12:07:25;7.23;;;4.90;;
8415;SDS011;4245;42.120;24.732;2023-01-28T12:10:02;8.27;;;5.90;;
8415;SDS011;4245;42.120;24.732;2023-01-28T12:12:53;12.30;;;6.97;;
8415;SDS011;4245;42.120;24.732;2023-01-28T12:15:38;9.67;;;6.93;;
8415;SDS011;4245;42.120;24.732;2023-01-28T12:18:18;7.80;;;4.73;;
8415;SDS011;4245;42.120;24.732;2023-01-28T12:20:58;7.87;;;5.50;;
8415;SDS011;4245;42.120;24.732;2023-01-28T12:23:36;13.67;;;6.20;;
8415;SDS011;4245;42.120;24.732;2023-01-28T12:26:25;5.73;;;4.57;;
8415;SDS011;4245;42.120;24.732;2023-01-28T12:29:05;7.60;;;5.60;;
8415;SDS011;4245;42.120;24.732;2023-01-28T12:31:49;9.30;;;6.47;;
8415;SDS011;4245;42.120;24.732;2023-01-28T12:34:35;6.90;;;5.63;;
8415;SDS011;4245;42.120;24.732;2023-01-28T12:37:17;7.07;;;4.90;;
8415;SDS011;4245;42.120;24.732;2023-01-28T12:39:56;8.57;;;5.40;;
8415;SDS011;4245;42.120;24.732;2023-01-28T12:42:37;9.87;;;5.80;;
8415;SDS011;4245;42.120;24.732;2023-01-28T12:45:11;8.20;;;5.77;;
8415;SDS011;4245;42.120;24.732;2023-01-28T12:47:42;6.30;;;5.43;;
8415;SDS011;4245;42.120;24.732;2023-01-28T12:50:16;8.30;;;5.53;;
8415;SDS011;4245;42.120;24.732;2023-01-28T12:52:48;7.80;;;6.03;;
8415;SDS011;4245;42.120;24.732;2023-01-28T12:55:21;10.00;;;6.20;;
8415;SDS011;4245;42.120;24.732;2023-01-28T12:58:01;10.23;;;5.90;;
8415;SDS011;4245;42.120;24.732;2023-01-28T13:00:31;9.00;;;6.37;;
8415;SDS011;4245;42.120;24.732;2023-01-28T13:03:02;8.13;;;6.30;;
8415;SDS011;4245;42.120;24.732;2023-01-28T13:05:37;11.13;;;6.80;;
8415;SDS011;4245;42.120;24.732;2023-01-28T13:08:09;11.90;;;6.10;;
8415;SDS011;4245;42.120;24.732;2023-01-28T13:10:42;12.73;;;6.27;;
8415;SDS011;4245;42.120;24.732;2023-01-28T13:13:12;9.10;;;6.33;;
8415;SDS011;4245;42.120;24.732;2023-01-28T13:15:43;8.50;;;6.30;;
8415;SDS011;4245;42.120;24.732;2023-01-28T13:20:57;8.60;;;6.47;;
8415;SDS011;4245;42.120;24.732;2023-01-28T13:23:25;9.20;;;6.30;;
8415;SDS011;4245;42.120;24.732;2023-01-28T13:29:06;8.63;;;5.67;;
8415;SDS011;4245;42.120;24.732;2023-01-28T13:31:43;9.73;;;5.83;;
8415;SDS011;4245;42.120;24.732;2023-01-28T13:34:24;9.23;;;6.20;;
8415;SDS011;4245;42.120;24.732;2023-01-28T13:36:54;12.60;;;8.20;;
8415;SDS011;4245;42.120;24.732;2023-01-28T13:39:23;9.67;;;7.00;;
8415;SDS011;4245;42.120;24.732;2023-01-28T13:41:53;13.23;;;8.03;;
8415;SDS011;4245;42.120;24.732;2023-01-28T13:44:26;9.67;;;7.00;;
8415;SDS011;4245;42.120;24.732;2023-01-28T13:46:54;8.87;;;5.97;;
8415;SDS011;4245;42.120;24.732;2023-01-28T13:49:25;7.07;;;5.40;;
8415;SDS011;4245;42.120;24.732;2023-01-28T13:51:58;7.90;;;5.87;;
8415;SDS011;4245;42.120;24.732;2023-01-28T13:54:33;9.90;;;6.37;;
8415;SDS011;4245;42.120;24.732;2023-01-28T13:57:12;7.97;;;5.57;;
8415;SDS011;4245;42.120;24.732;2023-01-28T14:00:01;8.63;;;5.87;;
8415;SDS011;4245;42.120;24.732;2023-01-28T14:02:45;9.07;;;5.77;;
8415;SDS011;4245;42.120;24.732;2023-01-28T14:05:55;9.13;;;6.73;;
8415;SDS011;4245;42.120;24.732;2023-01-28T14:08:38;9.63;;;6.63;;
8415;SDS011;4245;42.120;24.732;2023-01-28T14:11:27;8.80;;;6.20;;
8415;SDS011;4245;42.120;24.732;2023-01-28T14:14:24;8.20;;;6.20;;
8415;SDS011;4245;42.120;24.732;2023-01-28T14:17:08;9.93;;;6.27;;
8415;SDS011;4245;42.120;24.732;2023-01-28T14:19:47;11.53;;;7.50;;
8415;SDS011;4245;42.120;24.732;2023-01-28T14:22:16;9.40;;;5.70;;
8415;SDS011;4245;42.120;24.732;2023-01-28T14:24:46;10.73;;;6.77;;
8415;SDS011;4245;42.120;24.732;2023-01-28T14:27:14;10.43;;;7.23;;
8415;SDS011;4245;42.120;24.732;2023-01-28T14:29:48;10.70;;;6.50;;
8415;SDS011;4245;42.120;24.732;2023-01-28T14:32:25;8.93;;;5.90;;
8415;SDS011;4245;42.120;24.732;2023-01-28T14:34:55;9.00;;;6.47;;
8415;SDS011;4245;42.120;24.732;2023-01-28T14:37:27;10.20;;;6.43;;
8415;SDS011;4245;42.120;24.732;2023-01-28T14:39:56;12.10;;;7.10;;
8415;SDS011;4245;42.120;24.732;2023-01-28T14:42:25;7.33;;;5.37;;
8415;SDS011;4245;42.120;24.732;2023-01-28T14:45:00;9.37;;;5.90;;
8415;SDS011;4245;42.120;24.732;2023-01-28T14:47:45;9.53;;;7.27;;
8415;SDS011;4245;42.120;24.732;2023-01-28T14:50:32;9.00;;;6.20;;
8415;SDS011;4245;42.120;24.732;2023-01-28T14:56:16;10.03;;;6.87;;
8415;SDS011;4245;42.120;24.732;2023-01-28T14:58:52;7.90;;;6.03;;
8415;SDS011;4245;42.120;24.732;2023-01-28T15:01:23;10.07;;;7.10;;
8415;SDS011;4245;42.120;24.732;2023-01-28T15:03:51;9.63;;;5.87;;
8415;SDS011;4245;42.120;24.732;2023-01-28T15:06:19;10.50;;;6.07;;
8415;SDS011;4245;42.120;24.732;2023-01-28T15:08:48;10.03;;;7.33;;
8415;SDS011;4245;42.120;24.732;2023-01-28T15:11:17;9.40;;;7.07;;
8415;SDS011;4245;42.120;24.732;2023-01-28T15:13:47;10.30;;;6.43;;
8415;SDS011;4245;42.120;24.732;2023-01-28T15:16:17;10.87;;;7.13;;
8415;SDS011;4245;42.120;24.732;2023-01-28T15:18:48;7.80;;;5.80;;
8415;SDS011;4245;42.120;24.732;2023-01-28T15:21:18;10.83;;;6.60;;
8415;SDS011;4245;42.120;24.732;2023-01-28T15:23:47;7.37;;;5.30;;
8415;SDS011;4245;42.120;24.732;2023-01-28T15:26:18;12.23;;;5.90;;
8415;SDS011;4245;42.120;24.732;2023-01-28T15:28:46;11.33;;;7.00;;
8415;SDS011;4245;42.120;24.732;2023-01-28T15:31:20;11.37;;;6.53;;
8415;SDS011;4245;42.120;24.732;2023-01-28T15:33:56;10.37;;;6.80;;
8415;SDS011;4245;42.120;24.732;2023-01-28T15:36:24;9.83;;;6.73;;
8415;SDS011;4245;42.120;24.732;2023-01-28T15:38:51;11.23;;;7.70;;
8415;SDS011;4245;42.120;24.732;2023-01-28T15:41:19;44.97;;;20.07;;